Time;durP1;ratioP1;P1;durP2;ratioP2;P2;SDS_P1;SDS_P2;PMS_P1;PMS_P2;Temp;Humidity;BMP_temperature;BMP_pressure;BME280_temperature;BME280_humidity;BME280_pressure;Samples;Min_cycle;Max_cycle;Signal;HPM_P1;HPM_P2
2022/06/21 00:01:21;;;;;;;2.17;1.73;;;20.60;58.90;;;;;;5007842;28;20434;-68
2022/06/21 00:03:49;;;;;;;2.40;2.00;;;20.60;59.10;;;;;;5010228;28;20920;-68
2022/06/21 00:06:25;;;;;;;2.50;1.90;;;20.60;59.10;;;;;;5013531;28;20474;-67
2022/06/21 00:08:51;;;;;;;2.67;1.90;;;20.60;59.20;;;;;;4996140;28;20470;-68
2022/06/21 00:11:32;;;;;;;2.97;1.90;;;20.60;59.30;;;;;;5007522;28;20511;-68
2022/06/21 00:13:58;;;;;;;2.80;2.13;;;20.50;59.70;;;;;;5011582;28;20450;-68
2022/06/21 00:16:26;;;;;;;2.00;1.80;;;20.40;59.80;;;;;;5008714;28;20439;-70
2022/06/21 00:18:52;;;;;;;2.30;1.77;;;20.40;59.90;;;;;;5008889;28;20209;-68
2022/06/21 00:21:30;;;;;;;2.60;2.07;;;20.50;59.90;;;;;;5005193;28;20440;-68
2022/06/21 00:23:56;;;;;;;4.07;2.10;;;20.50;59.90;;;;;;5009294;28;20436;-69
2022/06/21 00:26:24;;;;;;;2.37;2.10;;;20.50;60.00;;;;;;5014255;28;20523;-67
2022/06/21 00:28:49;;;;;;;3.00;2.00;;;20.50;60.10;;;;;;5009266;28;20473;-68
2022/06/21 00:31:29;;;;;;;2.30;1.80;;;20.40;60.10;;;;;;5007795;28;20432;-68
2022/06/21 00:33:56;;;;;;;2.90;1.80;;;20.40;60.50;;;;;;5008060;28;20180;-67
2022/06/21 00:36:32;;;;;;;2.70;2.10;;;20.40;60.60;;;;;;5007893;28;20443;-67
2022/06/21 00:39:00;;;;;;;4.33;1.80;;;20.40;60.70;;;;;;5007534;28;20538;-68
2022/06/21 00:41:56;;;;;;;3.33;1.93;;;20.40;60.80;;;;;;4994377;28;20535;-69
2022/06/21 00:44:31;;;;;;;2.23;1.90;;;20.30;60.90;;;;;;5005615;28;20885;-68
2022/06/21 00:47:18;;;;;;;2.83;1.93;;;20.30;61.10;;;;;;4993959;28;20450;-68
2022/06/21 00:49:52;;;;;;;2.83;2.20;;;20.20;61.00;;;;;;5008856;28;20558;-68
2022/06/21 00:52:30;;;;;;;2.63;2.10;;;20.20;61.10;;;;;;5011292;28;20428;-68
2022/06/21 00:55:06;;;;;;;2.10;1.90;;;20.10;61.30;;;;;;5014039;28;20446;-68
2022/06/21 00:57:53;;;;;;;3.03;2.07;;;20.10;61.60;;;;;;5009330;28;20522;-68
2022/06/21 01:00:36;;;;;;;2.30;2.10;;;20.00;61.80;;;;;;5008973;28;20443;-68
2022/06/21 01:03:23;;;;;;;3.03;2.07;;;20.00;62.00;;;;;;5009635;28;20432;-68
2022/06/21 01:05:51;;;;;;;2.67;2.43;;;20.00;62.20;;;;;;5007385;28;20435;-67
2022/06/21 01:08:24;;;;;;;3.13;1.90;;;20.00;62.20;;;;;;5007382;28;20842;-68
2022/06/21 01:10:55;;;;;;;2.60;2.33;;;19.90;62.20;;;;;;5010145;28;20424;-68
2022/06/21 01:13:25;;;;;;;2.77;1.80;;;19.90;62.40;;;;;;5013823;28;21192;-67
2022/06/21 01:15:53;;;;;;;4.90;2.57;;;19.90;62.50;;;;;;5012605;28;20438;-69
2022/06/21 01:18:22;;;;;;;3.60;2.20;;;19.90;62.70;;;;;;5009656;28;20466;-68
2022/06/21 01:20:50;;;;;;;2.73;1.83;;;19.90;62.90;;;;;;5008818;28;20430;-67
2022/06/21 01:23:58;;;;;;;3.40;1.93;;;19.90;63.00;;;;;;5011988;28;20814;-69
2022/06/21 01:26:48;;;;;;;3.60;2.20;;;19.80;63.20;;;;;;4996674;28;20485;-67
2022/06/21 01:29:18;;;;;;;2.13;1.90;;;19.80;63.30;;;;;;5009173;28;20475;-68
2022/06/21 01:31:44;;;;;;;2.10;1.80;;;19.70;63.40;;;;;;5008138;28;20561;-66
2022/06/21 01:34:22;;;;;;;4.20;2.17;;;19.70;63.60;;;;;;5006722;28;20431;-68
2022/06/21 01:37:13;;;;;;;3.00;2.03;;;19.70;63.80;;;;;;5007690;28;20455;-67
2022/06/21 01:39:55;;;;;;;3.67;2.10;;;19.60;64.00;;;;;;5010172;28;20606;-68
2022/06/21 01:42:27;;;;;;;4.50;1.80;;;19.60;64.10;;;;;;5008455;28;20494;-67
2022/06/21 01:44:58;;;;;;;2.80;1.90;;;19.50;64.20;;;;;;5010058;28;20459;-68
2022/06/21 01:47:31;;;;;;;3.30;2.00;;;19.40;64.90;;;;;;5007328;28;20880;-68
2022/06/21 01:50:03;;;;;;;4.37;2.27;;;19.40;64.70;;;;;;5009145;28;20440;-68
2022/06/21 01:52:32;;;;;;;3.67;2.10;;;19.40;64.90;;;;;;5009602;28;20565;-68
2022/06/21 01:55:05;;;;;;;3.33;1.90;;;19.30;64.90;;;;;;5006987;28;20446;-68
2022/06/21 01:57:31;;;;;;;3.17;1.90;;;19.30;65.90;;;;;;5008451;28;21019;-70
2022/06/21 02:00:03;;;;;;;2.20;2.00;;;19.30;65.00;;;;;;5007382;28;22343;-67
2022/06/21 02:02:57;;;;;;;2.60;2.00;;;19.30;65.10;;;;;;5012109;28;20438;-68
2022/06/21 02:05:34;;;;;;;3.33;2.00;;;19.30;65.30;;;;;;5009120;28;20475;-67
2022/06/21 02:08:05;;;;;;;2.63;2.23;;;19.20;65.20;;;;;;5006676;28;20496;-68
2022/06/21 02:10:33;;;;;;;3.90;2.03;;;19.20;65.30;;;;;;5007313;28;20498;-67
2022/06/21 02:13:06;;;;;;;3.33;2.10;;;19.10;65.50;;;;;;5010670;28;20444;-68
2022/06/21 02:15:39;;;;;;;3.33;1.97;;;19.10;65.50;;;;;;5010766;28;20451;-67
2022/06/21 02:18:10;;;;;;;2.83;1.97;;;19.20;65.60;;;;;;5009061;28;20475;-67
2022/06/21 02:21:06;;;;;;;6.53;2.10;;;19.10;65.50;;;;;;5010491;28;20494;-67
2022/06/21 02:23:32;;;;;;;2.80;2.17;;;19.10;65.70;;;;;;5007444;28;20434;-67
2022/06/21 02:25:58;;;;;;;2.00;1.80;;;19.00;65.80;;;;;;5013743;28;20441;-68
2022/06/21 02:28:28;;;;;;;3.83;1.83;;;19.00;65.80;;;;;;5009186;28;20205;-68
2022/06/21 02:30:55;;;;;;;3.27;2.13;;;19.00;65.80;;;;;;5005515;28;20487;-67
2022/06/21 02:33:28;;;;;;;2.60;2.10;;;19.00;65.80;;;;;;5011056;28;20533;-68
2022/06/21 02:36:17;;;;;;;3.33;2.13;;;19.00;65.90;;;;;;5005588;28;20458;-69
2022/06/21 02:38:47;;;;;;;3.80;2.07;;;19.00;66.10;;;;;;5006003;28;20468;-67
2022/06/21 02:41:22;;;;;;;4.80;2.60;;;19.00;66.10;;;;;;5012891;28;20435;-67
2022/06/21 02:43:56;;;;;;;2.67;1.80;;;18.90;66.20;;;;;;5011096;28;20447;-68
2022/06/21 02:46:31;;;;;;;3.07;1.90;;;18.90;65.50;;;;;;5009644;28;20987;-67
2022/06/21 02:49:05;;;;;;;2.30;1.73;;;18.80;65.60;;;;;;5008054;28;20489;-70
2022/06/21 02:51:36;;;;;;;3.10;2.00;;;18.80;65.50;;;;;;5006472;28;20439;-68
2022/06/21 02:54:11;;;;;;;5.20;1.90;;;18.70;65.70;;;;;;5008870;28;20555;-68
2022/06/21 02:56:47;;;;;;;2.30;1.70;;;18.70;66.10;;;;;;5009783;28;20439;-69
2022/06/21 02:59:13;;;;;;;4.10;2.20;;;18.60;66.20;;;;;;5007182;28;20573;-68
2022/06/21 03:01:53;;;;;;;2.60;1.90;;;18.60;66.00;;;;;;5008868;28;20562;-68
2022/06/21 03:04:26;;;;;;;2.50;2.03;;;18.60;66.00;;;;;;5011593;28;20923;-67
2022/06/21 03:06:52;;;;;;;2.50;2.10;;;18.60;66.00;;;;;;5004026;28;20468;-68
2022/06/21 03:09:21;;;;;;;3.70;2.10;;;18.60;65.80;;;;;;5012275;28;20486;-70
2022/06/21 03:11:51;;;;;;;2.63;2.13;;;18.60;66.00;;;;;;5012879;28;20442;-68
2022/06/21 03:14:23;;;;;;;2.23;1.90;;;18.60;66.70;;;;;;5009933;28;20486;-68
2022/06/21 03:16:50;;;;;;;3.60;1.90;;;18.50;65.70;;;;;;5005213;28;20539;-68
2022/06/21 03:19:30;;;;;;;2.60;2.00;;;18.60;65.90;;;;;;4989798;28;20472;-67
2022/06/21 03:21:57;;;;;;;2.67;1.90;;;18.50;65.80;;;;;;5002839;28;20432;-68
2022/06/21 03:24:25;;;;;;;2.30;2.10;;;18.50;65.90;;;;;;5007641;28;20435;-68
2022/06/21 03:27:00;;;;;;;6.63;2.00;;;18.50;66.00;;;;;;5009933;28;20517;-69
2022/06/21 03:29:28;;;;;;;2.17;1.70;;;18.40;66.60;;;;;;5006448;28;21052;-67
2022/06/21 03:31:54;;;;;;;3.90;2.23;;;18.50;66.60;;;;;;5007951;28;20887;-67
2022/06/21 03:34:24;;;;;;;3.60;2.13;;;18.50;66.10;;;;;;5011677;28;20435;-68
2022/06/21 03:36:50;;;;;;;3.00;2.20;;;18.50;66.00;;;;;;4995011;28;20479;-67
2022/06/21 03:41:42;;;;;;;3.30;1.90;;;18.60;66.10;;;;;;5010522;28;20471;-69
2022/06/21 03:42:09;;;;;;;2.80;2.03;;;18.60;66.10;;;;;;5011672;28;20435;-69
2022/06/21 03:44:43;;;;;;;3.00;2.20;;;18.60;66.10;;;;;;5007559;28;20435;-68
2022/06/21 03:47:33;;;;;;;4.33;2.03;;;18.60;66.10;;;;;;5006814;28;20447;-69
2022/06/21 03:50:08;;;;;;;4.73;2.00;;;18.60;66.10;;;;;;5007976;28;20994;-68
2022/06/21 03:53:01;;;;;;;3.80;2.10;;;18.70;66.00;;;;;;4990130;28;20674;-69
2022/06/21 03:55:42;;;;;;;2.30;2.00;;;18.60;66.10;;;;;;5003361;28;20448;-68
2022/06/21 03:58:33;;;;;;;2.47;2.10;;;18.60;66.30;;;;;;5007723;28;20468;-68
2022/06/21 04:01:12;;;;;;;5.23;2.27;;;18.70;66.20;;;;;;5010394;28;20440;-67
2022/06/21 04:03:44;;;;;;;3.20;2.37;;;18.60;66.10;;;;;;5010618;28;21171;-68
2022/06/21 04:06:27;;;;;;;3.10;2.60;;;18.60;66.30;;;;;;5009577;28;20446;-68
2022/06/21 04:09:20;;;;;;;4.37;2.60;;;18.60;67.30;;;;;;5012775;28;20486;-69
2022/06/21 04:11:56;;;;;;;3.67;2.60;;;18.60;66.40;;;;;;5011208;28;20538;-68
2022/06/21 04:14:48;;;;;;;3.17;2.27;;;18.60;66.40;;;;;;5013221;28;20450;-69
2022/06/21 04:17:25;;;;;;;3.13;2.30;;;18.70;66.30;;;;;;5010150;28;20435;-69
2022/06/21 04:20:01;;;;;;;3.40;2.27;;;18.70;66.30;;;;;;5009097;28;20502;-69
2022/06/21 04:22:27;;;;;;;3.20;2.93;;;18.70;66.50;;;;;;4992024;28;20428;-68
2022/06/21 04:25:25;;;;;;;3.70;2.80;;;18.80;66.10;;;;;;5015112;28;20959;-68
2022/06/21 04:28:02;;;;;;;4.00;3.10;;;18.70;66.10;;;;;;5014162;28;20177;-67
2022/06/21 04:30:32;;;;;;;3.23;2.90;;;18.80;66.10;;;;;;5011182;28;20439;-68
2022/06/21 04:33:15;;;;;;;6.00;2.33;;;18.70;66.00;;;;;;5012649;28;20431;-66
2022/06/21 04:35:55;;;;;;;4.70;2.77;;;18.80;65.70;;;;;;5009136;28;20463;-65
2022/06/21 04:38:59;;;;;;;2.70;2.50;;;18.80;65.40;;;;;;5006271;28;20692;-65
2022/06/21 04:41:51;;;;;;;3.70;2.90;;;18.80;65.50;;;;;;4987291;28;21011;-66
2022/06/21 04:44:44;;;;;;;4.50;3.73;;;18.70;65.40;;;;;;5004343;28;20448;-66
2022/06/21 04:47:31;;;;;;;3.87;3.00;;;18.70;65.30;;;;;;5008612;28;21067;-66
2022/06/21 04:50:13;;;;;;;5.90;3.17;;;18.80;65.30;;;;;;5008496;28;20444;-66
2022/06/21 04:52:44;;;;;;;3.93;3.10;;;18.80;65.10;;;;;;5009737;28;20489;-66
2022/06/21 04:55:15;;;;;;;3.70;3.20;;;18.80;65.00;;;;;;5010780;28;20443;-66
2022/06/21 04:57:41;;;;;;;3.93;3.20;;;18.80;65.00;;;;;;5014452;28;20522;-66
2022/06/21 05:00:15;;;;;;;3.20;2.90;;;18.80;65.00;;;;;;5011642;28;20522;-66
2022/06/21 05:02:43;;;;;;;3.40;2.80;;;18.80;65.00;;;;;;5009595;28;20432;-66
2022/06/21 05:05:31;;;;;;;4.10;3.70;;;18.90;65.10;;;;;;5005687;28;20474;-66
2022/06/21 05:08:14;;;;;;;3.37;3.03;;;19.00;65.00;;;;;;5011348;28;20463;-66
2022/06/21 05:10:44;;;;;;;3.70;2.90;;;19.00;64.50;;;;;;5005557;28;20521;-66
2022/06/21 05:13:19;;;;;;;3.30;3.00;;;19.00;64.50;;;;;;5006837;28;20431;-66
2022/06/21 05:15:45;;;;;;;4.63;3.00;;;19.00;64.60;;;;;;5004959;28;20504;-67
2022/06/21 05:18:19;;;;;;;5.93;2.90;;;19.10;64.50;;;;;;5011422;28;20478;-66
2022/06/21 05:21:01;;;;;;;4.30;2.70;;;19.10;64.50;;;;;;5012735;28;20845;-67
2022/06/21 05:23:28;;;;;;;3.10;2.80;;;19.20;64.40;;;;;;5010342;28;20436;-66
2022/06/21 05:25:57;;;;;;;4.10;2.80;;;19.20;64.20;;;;;;5011524;28;20437;-66
2022/06/21 05:28:37;;;;;;;3.60;2.60;;;19.10;64.20;;;;;;5006990;28;20462;-65
2022/06/21 05:31:17;;;;;;;4.10;3.03;;;19.20;64.30;;;;;;5008724;28;20511;-68
2022/06/21 05:34:00;;;;;;;3.27;2.97;;;19.20;64.40;;;;;;5006559;28;20450;-67
2022/06/21 05:36:32;;;;;;;4.73;3.23;;;19.20;63.90;;;;;;5009678;28;20440;-67
2022/06/21 05:39:01;;;;;;;4.27;2.73;;;19.30;64.20;;;;;;5011154;28;20546;-65
2022/06/21 05:41:31;;;;;;;3.47;3.17;;;19.30;63.90;;;;;;5011023;28;20439;-64
2022/06/21 05:44:31;;;;;;;3.40;3.10;;;19.30;63.90;;;;;;5008692;28;20553;-64
2022/06/21 05:47:07;;;;;;;5.80;5.20;;;19.30;64.00;;;;;;5007962;28;20431;-64
2022/06/21 05:49:35;;;;;;;5.57;4.63;;;19.50;63.80;;;;;;5006289;28;20451;-65
2022/06/21 05:52:39;;;;;;;4.70;4.00;;;19.60;63.70;;;;;;5012969;28;20447;-65
2022/06/21 05:55:11;;;;;;;5.57;4.27;;;19.60;63.50;;;;;;4939758;28;20451;-64
2022/06/21 05:57:43;;;;;;;8.37;6.80;;;19.70;63.30;;;;;;5001952;28;20474;-64
2022/06/21 06:00:33;;;;;;;14.73;9.60;;;19.80;63.30;;;;;;5007755;28;20597;-64
2022/06/21 06:03:09;;;;;;;4.33;3.70;;;19.90;62.80;;;;;;5010856;28;20443;-63
2022/06/21 06:05:35;;;;;;;12.73;10.30;;;20.00;62.70;;;;;;5013421;28;20461;-63
2022/06/21 06:08:13;;;;;;;4.97;4.47;;;20.00;62.30;;;;;;5010219;28;20461;-64
2022/06/21 06:10:43;;;;;;;5.17;3.83;;;20.10;62.20;;;;;;5007083;28;20454;-64
2022/06/21 06:13:16;;;;;;;8.10;6.27;;;20.20;61.80;;;;;;4989171;28;20953;-66
2022/06/21 06:15:55;;;;;;;5.90;3.40;;;20.20;62.20;;;;;;5005214;28;20519;-65
2022/06/21 06:18:24;;;;;;;8.57;3.37;;;20.30;61.50;;;;;;5004255;28;20528;-65
2022/06/21 06:21:01;;;;;;;6.50;3.70;;;20.30;61.60;;;;;;5008011;28;20442;-68
2022/06/21 06:24:06;;;;;;;4.50;3.43;;;20.30;60.90;;;;;;5004711;28;20522;-69
2022/06/21 06:26:37;;;;;;;5.10;3.77;;;20.40;60.70;;;;;;4989619;28;20453;-68
2022/06/21 06:29:26;;;;;;;6.93;4.70;;;20.40;60.90;;;;;;5011023;28;20451;-68
2022/06/21 06:31:58;;;;;;;5.37;3.90;;;20.50;60.90;;;;;;5009566;28;20820;-67
2022/06/21 06:34:29;;;;;;;4.27;3.87;;;20.50;60.40;;;;;;5011644;28;20437;-67
2022/06/21 06:37:01;;;;;;;7.47;5.50;;;20.60;60.10;;;;;;5009425;28;20482;-67
2022/06/21 06:39:30;;;;;;;5.10;4.60;;;20.70;60.30;;;;;;5014112;28;20506;-69
2022/06/21 06:42:05;;;;;;;6.43;5.20;;;20.80;59.90;;;;;;5008756;28;20443;-68
2022/06/21 06:44:38;;;;;;;8.43;6.83;;;20.80;59.70;;;;;;5011793;28;20427;-69
2022/06/21 06:47:11;;;;;;;3.80;3.23;;;20.90;59.60;;;;;;5025667;22;20490;-66
2022/06/21 06:49:43;;;;;;;9.00;6.30;;;20.90;59.60;;;;;;5006915;28;20509;-67
2022/06/21 06:52:21;;;;;;;8.23;4.17;;;21.00;59.40;;;;;;5014469;28;21000;-67
2022/06/21 06:55:18;;;;;;;8.27;6.30;;;21.10;59.20;;;;;;5012779;28;20441;-67
2022/06/21 06:58:09;;;;;;;5.23;4.00;;;21.30;58.90;;;;;;5011090;28;20538;-68
2022/06/21 07:00:40;;;;;;;7.70;3.87;;;21.50;59.00;;;;;;5009766;28;20444;-67
2022/06/21 07:03:38;;;;;;;6.03;3.40;;;21.60;58.90;;;;;;5013573;28;20455;-67
2022/06/21 07:06:33;;;;;;;4.73;2.97;;;21.60;58.80;;;;;;4999778;28;20526;-67
2022/06/21 07:09:10;;;;;;;4.57;3.27;;;21.60;58.70;;;;;;5016817;28;20534;-67
2022/06/21 07:11:39;;;;;;;6.47;4.93;;;21.70;58.90;;;;;;5014496;28;21191;-68
2022/06/21 07:14:14;;;;;;;4.80;3.47;;;21.80;58.80;;;;;;5015973;28;20471;-68
2022/06/21 07:16:41;;;;;;;4.10;3.50;;;21.90;58.50;;;;;;5012079;28;20863;-68
2022/06/21 07:19:09;;;;;;;4.27;3.47;;;22.00;58.30;;;;;;5012152;28;20924;-68
2022/06/21 07:21:37;;;;;;;3.60;2.93;;;22.10;58.20;;;;;;5013941;28;20427;-66
2022/06/21 07:24:03;;;;;;;3.60;3.30;;;22.20;57.80;;;;;;5014557;28;20507;-68
2022/06/21 07:27:00;;;;;;;3.63;3.30;;;22.20;57.90;;;;;;5009362;28;21015;-69
2022/06/21 07:29:59;;;;;;;3.97;3.33;;;22.20;57.90;;;;;;5010338;28;20443;-67
2022/06/21 07:32:30;;;;;;;6.73;3.63;;;22.20;58.00;;;;;;5009352;28;20804;-67
2022/06/21 07:35:11;;;;;;;6.30;3.50;;;22.20;58.40;;;;;;5013713;28;20578;-67
2022/06/21 07:37:46;;;;;;;7.10;3.70;;;22.20;58.50;;;;;;5013432;28;20454;-66
2022/06/21 07:40:27;;;;;;;3.63;3.20;;;22.20;58.50;;;;;;5014266;28;20513;-67
2022/06/21 07:43:16;;;;;;;4.40;3.30;;;22.10;58.50;;;;;;5019391;28;20497;-67
2022/06/21 07:45:53;;;;;;;6.40;3.40;;;22.10;58.80;;;;;;5013235;28;20492;-67
2022/06/21 07:48:37;;;;;;;4.40;3.60;;;22.10;58.70;;;;;;5016906;28;20473;-69
2022/06/21 07:51:19;;;;;;;7.80;3.30;;;22.10;58.80;;;;;;5013732;28;20701;-68
2022/06/21 07:54:07;;;;;;;5.10;3.90;;;22.10;58.90;;;;;;5000106;28;20440;-67
2022/06/21 07:56:39;;;;;;;5.57;3.50;;;22.10;59.10;;;;;;5014359;28;20925;-68
2022/06/21 07:59:17;;;;;;;8.90;3.87;;;22.10;59.00;;;;;;5017290;28;20466;-67
2022/06/21 08:07:35;;;;;;;4.63;3.60;;;22.40;59.20;;;;;;5013282;28;20447;-67
2022/06/21 08:10:09;;;;;;;11.90;3.50;;;22.50;59.10;;;;;;5019098;28;20458;-70
2022/06/21 08:12:35;;;;;;;4.07;3.77;;;22.60;59.40;;;;;;5014905;28;21004;-69
2022/06/21 08:15:03;;;;;;;7.00;3.80;;;22.90;59.20;;;;;;5015890;28;20522;-69
2022/06/21 08:17:36;;;;;;;6.63;3.23;;;23.10;59.10;;;;;;5016467;28;20213;-69
2022/06/21 08:20:19;;;;;;;3.67;3.37;;;23.20;59.50;;;;;;5013944;28;20468;-69
2022/06/21 08:22:52;;;;;;;12.10;3.63;;;23.30;59.20;;;;;;5015674;28;20530;-69
2022/06/21 08:25:33;;;;;;;3.93;3.53;;;23.40;59.40;;;;;;5017385;28;20423;-68
2022/06/21 08:28:08;;;;;;;5.70;3.97;;;23.60;59.20;;;;;;5012884;28;20463;-68
2022/06/21 08:30:45;;;;;;;3.50;3.20;;;23.70;59.00;;;;;;5013613;28;20870;-68
2022/06/21 08:33:17;;;;;;;3.63;3.33;;;23.90;58.90;;;;;;5013013;28;20459;-68
2022/06/21 08:35:54;;;;;;;5.97;3.47;;;23.90;58.90;;;;;;5012842;28;20479;-68
2022/06/21 08:38:27;;;;;;;4.73;3.57;;;23.90;58.80;;;;;;5016479;28;20480;-67
2022/06/21 08:40:59;;;;;;;9.40;3.80;;;24.00;58.90;;;;;;5001798;28;20448;-69
2022/06/21 08:43:48;;;;;;;8.70;3.90;;;24.10;58.80;;;;;;5010203;28;21005;-68
2022/06/21 08:46:43;;;;;;;6.87;4.70;;;24.20;58.70;;;;;;5012017;28;21042;-68
2022/06/21 08:49:40;;;;;;;6.43;3.70;;;24.20;58.60;;;;;;5010465;28;20451;-68
2022/06/21 08:52:22;;;;;;;3.60;3.30;;;24.30;58.70;;;;;;5019908;28;20474;-68
2022/06/21 08:55:00;;;;;;;4.00;3.60;;;24.30;58.50;;;;;;5014211;28;20469;-67
2022/06/21 08:57:46;;;;;;;4.43;3.77;;;24.20;58.50;;;;;;5014349;28;21033;-68
2022/06/21 09:00:42;;;;;;;5.00;3.73;;;24.20;58.80;;;;;;5014136;28;21063;-68
2022/06/21 09:03:33;;;;;;;3.80;3.40;;;24.20;59.20;;;;;;5014564;28;21156;-68
2022/06/21 09:06:13;;;;;;;4.00;3.60;;;24.40;59.00;;;;;;5017405;28;20488;-66
2022/06/21 09:08:57;;;;;;;11.73;4.17;;;24.40;58.80;;;;;;5014155;28;20467;-66
2022/06/21 09:11:49;;;;;;;6.77;3.80;;;24.60;58.60;;;;;;5013673;28;20440;-67
2022/06/21 09:14:54;;;;;;;7.63;3.60;;;24.70;58.30;;;;;;5013479;28;20542;-67
2022/06/21 09:17:31;;;;;;;4.10;3.70;;;24.80;57.80;;;;;;5013366;28;20538;-65
2022/06/21 09:20:26;;;;;;;5.43;3.90;;;24.90;57.40;;;;;;5011988;28;20463;-68
2022/06/21 09:23:06;;;;;;;5.77;3.90;;;24.80;57.60;;;;;;5017710;28;20935;-66
2022/06/21 09:26:07;;;;;;;4.00;3.50;;;24.80;57.80;;;;;;5010994;28;20472;-68
2022/06/21 09:28:47;;;;;;;4.10;3.23;;;24.80;57.50;;;;;;5017383;28;20478;-67
2022/06/21 09:31:38;;;;;;;6.10;3.90;;;24.90;57.50;;;;;;5016628;28;20541;-70
2022/06/21 09:34:28;;;;;;;4.87;3.73;;;24.90;57.50;;;;;;5013690;28;20435;-69
2022/06/21 09:37:10;;;;;;;6.20;3.80;;;24.80;57.30;;;;;;5011934;28;20590;-68
2022/06/21 09:39:55;;;;;;;6.00;3.50;;;24.90;57.30;;;;;;5015616;28;20466;-68
2022/06/21 09:42:38;;;;;;;7.00;3.87;;;25.00;57.30;;;;;;5012049;28;20436;-69
2022/06/21 09:45:36;;;;;;;7.50;3.80;;;25.10;57.80;;;;;;5011211;28;20436;-68
2022/06/21 09:48:28;;;;;;;5.20;3.70;;;25.20;57.70;;;;;;4963966;28;20501;-68
2022/06/21 09:51:17;;;;;;;5.40;4.10;;;25.30;57.50;;;;;;5010029;28;20478;-68
2022/06/21 09:53:59;;;;;;;4.10;3.80;;;25.30;57.00;;;;;;5016055;28;20458;-69
2022/06/21 09:56:37;;;;;;;12.07;4.13;;;25.40;57.30;;;;;;5015673;28;21039;-66
2022/06/21 09:59:11;;;;;;;4.33;3.93;;;25.50;56.90;;;;;;5015564;28;20499;-67
2022/06/21 10:01:44;;;;;;;4.50;3.37;;;25.60;56.90;;;;;;5012155;28;20438;-67
2022/06/21 10:04:23;;;;;;;4.73;3.83;;;25.60;57.10;;;;;;5015821;28;20423;-67
2022/06/21 10:07:07;;;;;;;5.63;3.80;;;25.70;57.10;;;;;;5009818;28;20541;-68
2022/06/21 10:10:20;;;;;;;6.13;3.73;;;25.70;57.10;;;;;;5016260;28;20530;-69
2022/06/21 10:12:52;;;;;;;6.43;3.97;;;25.80;57.00;;;;;;4965450;28;20435;-69
2022/06/21 10:15:38;;;;;;;8.93;3.70;;;25.80;56.00;;;;;;5013959;28;20489;-69
2022/06/21 10:18:45;;;;;;;4.27;3.83;;;25.90;55.90;;;;;;5011251;28;20455;-68
2022/06/21 10:21:29;;;;;;;6.90;5.00;;;26.00;55.60;;;;;;5001768;28;20431;-67
2022/06/21 10:24:21;;;;;;;6.20;4.13;;;26.10;55.80;;;;;;5010709;28;20478;-68
2022/06/21 10:27:12;;;;;;;5.73;4.20;;;26.10;56.10;;;;;;5012223;28;20973;-68
2022/06/21 10:30:03;;;;;;;5.50;4.40;;;26.20;55.90;;;;;;5016003;28;20916;-68
2022/06/21 10:32:53;;;;;;;8.07;5.73;;;26.30;56.00;;;;;;5010050;28;20443;-67
2022/06/21 10:35:39;;;;;;;9.50;3.97;;;26.40;56.70;;;;;;5012751;28;20427;-66
2022/06/21 10:38:36;;;;;;;4.57;4.17;;;26.50;57.00;;;;;;5013043;28;20444;-67
2022/06/21 10:41:40;;;;;;;5.60;4.90;;;26.50;56.70;;;;;;5014619;28;20439;-66
2022/06/21 10:44:20;;;;;;;5.00;3.80;;;26.60;55.90;;;;;;5010605;28;20441;-66
2022/06/21 10:46:55;;;;;;;9.33;4.87;;;26.70;55.60;;;;;;5009971;28;20431;-67
2022/06/21 10:49:50;;;;;;;4.63;4.00;;;26.70;55.80;;;;;;5008846;28;20552;-67
2022/06/21 10:52:40;;;;;;;4.87;4.37;;;26.70;55.40;;;;;;5012416;28;20558;-67
2022/06/21 10:55:39;;;;;;;5.70;4.73;;;26.70;55.40;;;;;;5006931;28;20432;-64
2022/06/21 10:58:13;;;;;;;5.30;4.00;;;26.80;55.70;;;;;;5008834;28;21049;-65
2022/06/21 11:01:17;;;;;;;8.03;4.10;;;27.00;55.30;;;;;;5014841;28;20911;-65
2022/06/21 11:04:13;;;;;;;4.83;3.80;;;27.10;54.50;;;;;;5011070;28;20435;-66
2022/06/21 11:06:59;;;;;;;6.73;4.20;;;27.30;55.60;;;;;;5011077;28;20442;-66
2022/06/21 11:09:38;;;;;;;6.90;4.20;;;27.40;55.10;;;;;;5012702;28;20518;-66
2022/06/21 11:15:20;;;;;;;4.23;3.83;;;27.60;54.10;;;;;;5010003;28;20546;-67
2022/06/21 11:18:10;;;;;;;5.20;4.30;;;27.80;54.10;;;;;;5012487;28;20459;-66
2022/06/21 11:20:50;;;;;;;7.27;4.17;;;27.90;54.00;;;;;;5014095;28;20564;-66
2022/06/21 11:23:17;;;;;;;5.00;4.60;;;28.00;54.20;;;;;;5011528;28;20466;-66
2022/06/21 11:26:23;;;;;;;8.20;4.67;;;28.20;53.40;;;;;;5015030;28;20446;-67
2022/06/21 11:29:25;;;;;;;7.20;4.53;;;28.30;53.60;;;;;;4994510;28;20794;-67
2022/06/21 11:32:17;;;;;;;4.73;4.33;;;28.40;53.70;;;;;;5012981;28;20515;-67
2022/06/21 11:35:04;;;;;;;7.83;4.87;;;28.50;53.40;;;;;;5012882;28;20436;-67
2022/06/21 11:37:36;;;;;;;4.77;4.30;;;28.70;53.00;;;;;;5010270;28;20913;-67
2022/06/21 11:40:13;;;;;;;4.83;4.43;;;28.80;53.20;;;;;;5010139;28;20471;-67
2022/06/21 11:42:49;;;;;;;5.17;4.67;;;29.10;53.00;;;;;;5010501;28;20431;-67
2022/06/21 11:45:37;;;;;;;4.37;4.07;;;29.20;52.80;;;;;;5011828;28;20435;-67
2022/06/21 11:48:21;;;;;;;7.23;4.80;;;29.40;52.80;;;;;;5014899;28;20545;-67
2022/06/21 11:50:53;;;;;;;5.07;4.13;;;29.60;52.20;;;;;;5013127;28;20574;-67
2022/06/21 11:53:43;;;;;;;4.63;3.80;;;29.80;51.40;;;;;;5011216;28;20497;-67
2022/06/21 11:56:21;;;;;;;4.37;3.97;;;30.00;50.60;;;;;;5015025;28;21050;-66
2022/06/21 11:59:05;;;;;;;5.30;4.70;;;30.20;50.50;;;;;;5009033;28;20580;-65
2022/06/21 12:02:01;;;;;;;6.40;3.93;;;30.50;50.20;;;;;;5013765;28;20550;-66
2022/06/21 12:05:01;;;;;;;5.20;4.70;;;31.00;49.90;;;;;;5007466;28;20414;-67
2022/06/21 12:07:37;;;;;;;6.07;4.17;;;31.80;49.00;;;;;;5006877;28;20510;-67
2022/06/21 12:10:15;;;;;;;4.57;4.10;;;33.40;47.80;;;;;;5006662;28;20526;-67
2022/06/21 12:13:07;;;;;;;5.13;4.33;;;35.20;45.40;;;;;;5003464;28;22006;-69
2022/06/21 12:15:58;;;;;;;5.10;4.37;;;36.70;43.70;;;;;;5004503;28;20435;-68
2022/06/21 12:18:32;;;;;;;4.53;4.20;;;38.10;41.90;;;;;;5005412;28;20483;-67
2022/06/21 12:21:11;;;;;;;15.43;4.20;;;39.00;40.00;;;;;;5009481;28;20874;-68
2022/06/21 12:23:45;;;;;;;5.87;4.37;;;39.50;39.20;;;;;;5003792;28;20532;-68
2022/06/21 12:26:15;;;;;;;4.57;4.10;;;39.90;38.70;;;;;;5009582;28;21158;-67
2022/06/21 12:28:41;;;;;;;4.50;4.07;;;40.30;38.00;;;;;;5002035;28;20511;-67
2022/06/21 12:31:19;;;;;;;5.50;3.90;;;40.70;37.30;;;;;;5009824;28;20436;-67
2022/06/21 12:33:49;;;;;;;4.53;4.13;;;40.50;36.30;;;;;;5004646;28;20680;-67
2022/06/21 12:36:26;;;;;;;4.03;3.73;;;40.20;36.80;;;;;;5014061;28;20892;-67
2022/06/21 12:39:03;;;;;;;4.50;4.10;;;40.60;37.40;;;;;;5008538;28;21286;-68
2022/06/21 12:41:34;;;;;;;4.07;3.63;;;41.10;36.60;;;;;;5013853;28;20840;-68
2022/06/21 12:44:23;;;;;;;5.13;4.17;;;41.60;36.40;;;;;;5012687;28;20510;-69
2022/06/21 12:47:00;;;;;;;4.27;3.87;;;41.90;35.60;;;;;;4992516;28;20426;-70
2022/06/21 12:49:41;;;;;;;8.13;4.17;;;41.50;35.40;;;;;;5010770;28;20467;-68
2022/06/21 12:52:19;;;;;;;8.67;4.70;;;41.40;35.80;;;;;;5014433;28;20483;-69
2022/06/21 12:55:10;;;;;;;5.00;4.30;;;41.60;36.40;;;;;;5012075;28;20438;-68
2022/06/21 12:57:53;;;;;;;5.13;4.67;;;42.20;35.60;;;;;;5017139;28;20450;-68
2022/06/21 13:00:36;;;;;;;5.70;4.27;;;42.50;35.10;;;;;;5013441;28;21126;-68
2022/06/21 13:03:37;;;;;;;4.20;3.90;;;43.20;34.70;;;;;;5014312;28;20538;-67
2022/06/21 13:06:03;;;;;;;5.73;5.20;;;43.60;34.00;;;;;;5016818;28;20628;-66
2022/06/21 13:08:40;;;;;;;4.47;4.07;;;43.70;33.60;;;;;;5010995;28;20914;-66
2022/06/21 13:11:21;;;;;;;5.30;3.87;;;44.00;33.80;;;;;;5016039;28;20180;-66
2022/06/21 13:14:04;;;;;;;5.93;4.20;;;44.30;33.50;;;;;;5013012;28;20423;-66
2022/06/21 13:16:44;;;;;;;4.00;3.60;;;44.60;33.20;;;;;;5011641;28;20534;-69
2022/06/21 13:19:44;;;;;;;4.67;4.20;;;44.30;32.70;;;;;;5014251;28;21248;-67
2022/06/21 13:22:20;;;;;;;4.77;4.37;;;43.10;32.80;;;;;;5014499;28;20443;-68
2022/06/21 13:24:49;;;;;;;4.40;4.00;;;41.80;33.70;;;;;;5013042;28;20920;-69
2022/06/21 13:27:55;;;;;;;4.80;4.10;;;41.30;35.00;;;;;;5014925;28;20443;-67
2022/06/21 13:30:35;;;;;;;5.57;4.13;;;41.60;35.20;;;;;;5012204;28;20537;-67
2022/06/21 13:33:09;;;;;;;5.67;4.60;;;41.90;35.30;;;;;;5012879;28;20829;-68
2022/06/21 13:36:06;;;;;;;5.20;4.20;;;42.00;34.80;;;;;;5010991;28;20812;-68
2022/06/21 13:38:32;;;;;;;4.80;4.40;;;42.00;34.90;;;;;;5016925;28;20463;-69
2022/06/21 13:44:13;;;;;;;4.70;4.30;;;42.60;34.70;;;;;;5013256;28;20196;-69
2022/06/21 13:46:45;;;;;;;4.83;3.93;;;45.30;33.20;;;;;;5017616;28;21039;-69
2022/06/21 13:49:17;;;;;;;4.67;4.27;;;47.30;31.40;;;;;;5020133;28;20462;-69
2022/06/21 13:51:55;;;;;;;4.67;4.27;;;48.70;30.50;;;;;;5015709;28;20430;-69
2022/06/21 13:54:35;;;;;;;4.50;3.83;;;49.70;29.50;;;;;;5016136;28;20184;-67
2022/06/21 13:57:15;;;;;;;4.18;3.65;;;50.60;29.20;;;;;;5012795;28;20192;-65
2022/06/21 13:59:45;;;;;;;5.68;4.20;;;50.70;28.30;;;;;;5011959;28;20184;-68